createdAt,value
2023-05-03T05:08:00.541Z,22.33
2023-05-03T05:16:11.493Z,16.15
2023-05-03T05:24:27.747Z,17.25
2023-05-03T05:26:55.476Z,20.23
2023-05-03T05:32:54.192Z,16.75
2023-05-03T05:35:21.752Z,16.13
2023-05-03T05:37:49.334Z,17.58
2023-05-03T05:40:16.815Z,15.55
2023-05-03T05:42:46.307Z,18.30
2023-05-03T05:45:13.851Z,17.05
2023-05-03T05:47:41.521Z,17.83
2023-05-03T05:50:17.748Z,18.35
2023-05-03T05:52:45.982Z,17.17
2023-05-03T05:55:14.860Z,19.50
2023-05-03T05:57:42.372Z,19.77
2023-05-03T06:00:14.596Z,21.15
2023-05-03T06:02:42.839Z,19.65
2023-05-03T06:05:12.038Z,19.20
2023-05-03T06:07:39.539Z,14.80
2023-05-03T06:10:08.057Z,16.15
2023-05-03T06:12:36.768Z,19.15
2023-05-03T06:15:06.190Z,20.40
2023-05-03T06:17:34.945Z,18.80
2023-05-03T06:20:04.887Z,17.67
2023-05-03T06:22:32.665Z,17.75
2023-05-03T06:25:00.438Z,20.65
2023-05-03T06:27:27.879Z,17.70
2023-05-03T06:29:55.383Z,18.02
2023-05-03T06:32:23.616Z,16.35
2023-05-03T06:34:51.259Z,18.60
2023-05-03T06:37:18.744Z,19.05
2023-05-03T06:39:46.332Z,18.48
2023-05-03T06:42:14.002Z,17.63
2023-05-03T06:44:42.565Z,19.65
2023-05-03T06:47:10.092Z,19.13
2023-05-03T06:49:37.740Z,19.00
2023-05-03T06:52:05.626Z,20.25
2023-05-03T06:54:33.120Z,15.35
2023-05-03T06:57:01.887Z,19.65
2023-05-03T06:59:29.437Z,18.35
2023-05-03T07:01:57.032Z,17.65
2023-05-03T07:04:29.672Z,23.55
2023-05-03T07:06:57.711Z,17.40
2023-05-03T07:09:41.577Z,18.88
2023-05-03T07:12:10.941Z,20.75
2023-05-03T07:14:40.726Z,17.25
2023-05-03T07:17:09.498Z,18.73
2023-05-03T07:19:37.657Z,18.08
2023-05-03T07:22:05.627Z,18.52
2023-05-03T07:24:33.228Z,19.17
2023-05-03T07:27:00.711Z,19.23
2023-05-03T07:29:28.117Z,17.83
2023-05-03T07:31:55.850Z,16.60
2023-05-03T07:34:23.341Z,18.10
2023-05-03T07:36:52.112Z,18.15
2023-05-03T07:39:19.886Z,17.60
2023-05-03T07:41:47.402Z,18.38
2023-05-03T07:44:14.806Z,19.30
2023-05-03T07:46:42.325Z,18.90
2023-05-03T07:49:09.741Z,21.42
2023-05-03T07:51:41.220Z,20.75
2023-05-03T07:54:08.892Z,17.92
2023-05-03T07:56:36.588Z,18.27
2023-05-03T07:59:09.979Z,17.45
2023-05-03T08:01:38.565Z,16.52
2023-05-03T08:04:06.588Z,18.30
2023-05-03T08:06:35.999Z,20.00
2023-05-03T08:09:04.775Z,20.88
2023-05-03T08:11:32.782Z,18.58
2023-05-03T08:14:00.224Z,18.73
2023-05-03T08:16:27.978Z,18.67
2023-05-03T08:18:55.578Z,19.50
2023-05-03T08:21:24.861Z,23.25
2023-05-03T08:23:52.871Z,18.85
2023-05-03T08:26:22.317Z,15.77
2023-05-03T08:28:50.084Z,18.52
2023-05-03T08:31:17.851Z,17.77
2023-05-03T08:33:45.800Z,19.45
2023-05-03T08:36:13.288Z,19.63
2023-05-03T08:38:41.365Z,18.73
2023-05-03T08:41:31.171Z,18.60
2023-05-03T08:44:01.490Z,16.00
2023-05-03T08:46:29.577Z,16.67
2023-05-03T08:48:58.882Z,19.85
2023-05-03T08:51:27.766Z,20.90
2023-05-03T08:53:55.208Z,17.63
2023-05-03T08:56:43.917Z,19.80
2023-05-03T08:59:11.817Z,20.58
2023-05-03T09:01:42.013Z,22.30
2023-05-03T09:04:12.440Z,22.40
2023-05-03T09:09:08.950Z,19.05
2023-05-03T09:11:39.381Z,19.20
2023-05-03T09:14:18.794Z,23.35
2023-05-03T09:16:47.606Z,17.35
2023-05-03T09:19:16.778Z,19.10
2023-05-03T09:21:47.580Z,20.30
2023-05-03T09:24:22.103Z,23.52
2023-05-03T09:26:52.880Z,22.13
2023-05-03T09:29:36.179Z,19.08
2023-05-03T09:32:06.422Z,17.40
2023-05-03T09:34:38.391Z,17.67
2023-05-03T09:37:06.829Z,18.58
2023-05-03T09:39:36.968Z,17.05
2023-05-03T09:42:19.285Z,20.25
2023-05-03T09:44:53.935Z,21.50
2023-05-03T09:47:21.841Z,16.73
2023-05-03T09:49:49.377Z,16.27
2023-05-03T09:52:17.860Z,18.30
2023-05-03T09:54:46.036Z,17.27
2023-05-03T09:57:15.145Z,14.45
2023-05-03T09:59:45.164Z,16.63
2023-05-03T10:02:12.752Z,16.75
2023-05-03T10:04:51.977Z,18.42
2023-05-03T10:07:21.872Z,18.02
2023-05-03T10:09:49.860Z,14.73
2023-05-03T10:12:17.980Z,13.88
2023-05-03T10:14:51.980Z,15.65
2023-05-03T10:17:47.805Z,14.95
2023-05-03T10:20:43.940Z,15.75
2023-05-03T10:23:13.959Z,17.20
2023-05-03T10:26:07.382Z,15.55
2023-05-03T10:28:39.865Z,14.07
2023-05-03T10:31:27.255Z,14.45
2023-05-03T10:33:54.772Z,12.93
2023-05-03T10:36:23.561Z,12.20
2023-05-03T10:38:53.822Z,15.73
2023-05-03T10:41:27.421Z,14.25
2023-05-03T10:43:54.864Z,13.35
2023-05-03T10:46:34.489Z,13.48
2023-05-03T10:49:37.563Z,12.67
2023-05-03T10:52:35.991Z,15.25
2023-05-03T10:55:13.147Z,16.73
2023-05-03T10:57:46.927Z,13.52
2023-05-03T11:00:40.580Z,17.63
2023-05-03T11:04:03.184Z,16.17
2023-05-03T11:06:36.663Z,13.05
2023-05-03T11:09:08.318Z,14.75
2023-05-03T11:11:41.194Z,13.73
2023-05-03T11:14:11.666Z,13.80
2023-05-03T11:16:47.731Z,13.95
2023-05-03T11:19:16.542Z,12.77
2023-05-03T11:21:46.404Z,13.25
2023-05-03T11:26:42.283Z,11.18
2023-05-03T11:29:11.928Z,12.55
2023-05-03T11:31:43.302Z,11.47
2023-05-03T11:34:15.833Z,13.18
2023-05-03T11:36:43.500Z,10.43
2023-05-03T11:39:14.549Z,12.77
2023-05-03T11:41:42.424Z,10.07
2023-05-03T11:44:17.316Z,12.90
2023-05-03T11:46:47.512Z,8.68
2023-05-03T11:49:19.595Z,11.15
2023-05-03T11:51:50.946Z,11.60
2023-05-03T11:54:26.397Z,10.75
2023-05-03T11:56:59.861Z,10.88
2023-05-03T11:59:40.889Z,10.30
2023-05-03T12:02:15.234Z,15.55
2023-05-03T12:04:45.485Z,11.77
2023-05-03T12:07:16.902Z,10.45
2023-05-03T12:09:52.696Z,10.23
2023-05-03T12:12:31.860Z,8.48
2023-05-03T12:15:04.579Z,10.98
2023-05-03T12:17:43.515Z,10.38
2023-05-03T12:23:04.201Z,10.45
2023-05-03T12:25:34.876Z,8.80
2023-05-03T12:28:19.668Z,8.38
2023-05-03T12:30:48.329Z,10.02
2023-05-03T12:33:17.055Z,12.73
2023-05-03T12:35:47.800Z,11.60
2023-05-03T12:38:17.385Z,8.85
2023-05-03T12:40:47.497Z,9.00
2023-05-03T12:43:15.421Z,10.38
2023-05-03T12:45:46.873Z,10.40
2023-05-03T12:48:20.192Z,8.38
2023-05-03T12:50:51.481Z,9.27
2023-05-03T12:53:19.580Z,10.88
2023-05-03T12:55:51.701Z,9.40
2023-05-03T13:03:43.758Z,9.43
2023-05-03T13:06:14.675Z,8.15
2023-05-03T13:11:13.205Z,8.73
2023-05-03T13:13:40.908Z,9.50
2023-05-03T13:16:09.777Z,7.57
2023-05-03T13:18:37.607Z,7.60
2023-05-03T13:21:06.601Z,6.55
2023-05-03T13:23:34.521Z,5.93
2023-05-03T13:26:01.957Z,9.63
2023-05-03T13:28:29.510Z,6.38
2023-05-03T13:30:57.249Z,7.43
2023-05-03T13:33:24.802Z,6.93
2023-05-03T13:35:52.339Z,4.75
2023-05-03T13:38:19.725Z,7.07
2023-05-03T13:40:47.327Z,11.38
2023-05-03T13:43:14.774Z,6.47
2023-05-03T13:45:42.297Z,6.03
2023-05-03T13:48:14.812Z,7.63
2023-05-03T13:50:45.746Z,4.95
2023-05-03T13:53:13.257Z,1.90
2023-05-03T13:55:40.749Z,1.58
2023-05-03T13:58:08.758Z,2.15
2023-05-03T14:00:36.265Z,6.05
2023-05-03T14:03:04.543Z,1.42
2023-05-03T14:05:32.146Z,2.38
2023-05-03T14:07:59.722Z,3.25
2023-05-03T14:10:28.131Z,8.43
2023-05-03T14:12:58.037Z,1.70
2023-05-03T14:15:25.872Z,2.35
2023-05-03T14:17:55.263Z,2.17
2023-05-03T14:20:24.825Z,3.40
2023-05-03T14:22:52.430Z,3.03
2023-05-03T14:25:19.942Z,1.10
2023-05-03T14:27:47.435Z,2.47
2023-05-03T14:30:15.697Z,1.50
2023-05-03T14:32:43.373Z,1.60
2023-05-03T14:35:11.028Z,2.13
2023-05-03T14:37:38.606Z,2.35
2023-05-03T14:40:09.941Z,2.20
2023-05-03T14:42:37.396Z,1.77
2023-05-03T14:45:08.696Z,1.35
2023-05-03T14:47:39.040Z,2.22
2023-05-03T14:50:07.957Z,3.97
2023-05-03T14:52:36.329Z,1.20
2023-05-03T14:55:06.921Z,1.75
2023-05-03T14:57:34.684Z,1.67
2023-05-03T15:00:07.577Z,2.97
2023-05-03T15:02:35.599Z,2.28
2023-05-03T15:05:04.622Z,2.10
2023-05-03T15:07:32.661Z,1.90
2023-05-03T15:10:04.282Z,3.15
2023-05-03T15:12:32.925Z,3.78
2023-05-03T15:15:00.766Z,2.85
2023-05-03T15:17:28.238Z,1.83
2023-05-03T15:19:55.722Z,1.40
2023-05-03T15:22:23.159Z,1.50
2023-05-03T15:24:51.003Z,1.88
2023-05-03T15:27:18.477Z,2.45
2023-05-03T15:29:46.519Z,1.65
2023-05-03T15:32:14.245Z,2.72
2023-05-03T15:34:41.874Z,1.30
2023-05-03T15:37:12.369Z,2.90
2023-05-03T15:39:40.082Z,6.22
2023-05-03T15:42:07.561Z,1.42
2023-05-03T15:44:34.975Z,4.15
2023-05-03T15:47:02.748Z,1.73
2023-05-03T15:49:30.255Z,2.15
2023-05-03T15:51:58.174Z,3.22
2023-05-03T15:54:25.658Z,2.67
2023-05-03T15:56:53.378Z,3.90
2023-05-03T15:59:20.925Z,1.40
2023-05-03T16:01:48.694Z,1.33
2023-05-03T16:04:16.189Z,3.17
2023-05-03T16:06:43.670Z,1.98
2023-05-03T16:09:12.582Z,2.70
2023-05-03T16:11:40.151Z,2.25
2023-05-03T16:14:09.659Z,2.00
2023-05-03T16:16:39.229Z,2.65
2023-05-03T16:19:09.091Z,3.20
2023-05-03T16:21:36.620Z,1.95
2023-05-03T16:24:04.900Z,4.60
2023-05-03T16:26:34.574Z,1.98
2023-05-03T16:29:02.189Z,2.10
2023-05-03T16:31:33.149Z,1.48
2023-05-03T16:34:01.104Z,3.42
2023-05-03T16:36:28.636Z,3.85
2023-05-03T16:38:56.050Z,2.63
2023-05-03T16:41:24.366Z,3.88
2023-05-03T16:43:52.051Z,2.28
2023-05-03T16:46:20.442Z,1.98
2023-05-03T16:48:48.277Z,2.75
2023-05-03T16:51:21.302Z,3.13
2023-05-03T16:53:49.564Z,3.38
2023-05-03T16:56:17.078Z,4.30
2023-05-03T16:58:44.617Z,3.25
2023-05-03T17:01:12.283Z,3.50
2023-05-03T17:03:40.547Z,1.73
2023-05-03T17:06:08.500Z,2.05
2023-05-03T17:08:36.151Z,2.10
2023-05-03T17:11:14.747Z,1.83
2023-05-03T17:13:42.660Z,2.60
2023-05-03T17:16:15.298Z,4.05
2023-05-03T17:18:43.232Z,2.80
2023-05-03T17:21:11.706Z,2.90
2023-05-03T17:23:40.033Z,2.55
2023-05-03T17:26:12.380Z,2.30
2023-05-03T17:28:40.664Z,2.45
2023-05-03T17:31:08.547Z,1.75
2023-05-03T17:33:36.784Z,2.05
2023-05-03T17:36:05.111Z,2.97
2023-05-03T17:38:34.664Z,4.28
2023-05-03T17:41:08.666Z,3.90
2023-05-03T17:43:37.965Z,4.10
2023-05-03T17:46:12.736Z,2.10
2023-05-03T17:48:44.234Z,3.08
2023-05-03T17:51:14.679Z,3.35
2023-05-03T17:56:28.999Z,5.47
2023-05-03T17:58:56.872Z,3.72
2023-05-03T18:01:25.836Z,2.45
2023-05-03T18:03:53.478Z,2.53
2023-05-03T18:06:21.352Z,4.70
2023-05-03T18:08:48.870Z,2.55
2023-05-03T18:11:16.404Z,2.88
2023-05-03T18:13:45.026Z,2.67
2023-05-03T18:16:12.470Z,2.42
2023-05-03T18:18:39.999Z,3.53
2023-05-03T18:21:07.482Z,2.10
2023-05-03T18:23:35.408Z,3.50
2023-05-03T18:26:03.918Z,3.72
2023-05-03T18:28:31.392Z,3.03
2023-05-03T18:30:59.140Z,3.03
2023-05-03T18:33:26.635Z,3.42
2023-05-03T18:35:54.335Z,3.95
2023-05-03T18:38:22.020Z,2.65
2023-05-03T18:40:50.258Z,4.97
2023-05-03T18:43:17.828Z,4.25
2023-05-03T18:45:45.767Z,3.35
2023-05-03T18:48:13.312Z,2.53
2023-05-03T18:50:43.180Z,3.55
2023-05-03T18:53:10.942Z,4.10
2023-05-03T18:55:38.462Z,3.25
2023-05-03T18:58:05.911Z,4.63
2023-05-03T19:00:33.482Z,3.10
2023-05-03T19:03:01.473Z,3.22
2023-05-03T19:05:29.050Z,3.00
2023-05-03T19:07:56.521Z,2.25
2023-05-03T19:10:25.304Z,2.00
2023-05-03T19:12:53.607Z,3.63
2023-05-03T19:15:21.321Z,3.22
2023-05-03T19:17:48.767Z,3.10
2023-05-03T19:20:17.581Z,3.30
2023-05-03T19:22:45.196Z,3.38
2023-05-03T19:25:12.746Z,2.33
2023-05-03T19:27:40.230Z,2.65
2023-05-03T19:30:09.643Z,4.97
2023-05-03T19:32:39.212Z,2.75
2023-05-03T19:35:10.494Z,4.68
2023-05-03T19:37:39.071Z,4.22
2023-05-03T19:40:07.927Z,4.70
2023-05-03T19:42:35.562Z,5.03
2023-05-03T19:45:04.914Z,4.10
2023-05-03T19:47:33.822Z,4.05
2023-05-03T19:50:01.621Z,2.67
2023-05-03T19:52:29.305Z,3.08
2023-05-03T19:54:57.828Z,2.50
2023-05-03T19:57:25.853Z,3.83
2023-05-03T19:59:55.917Z,3.08
2023-05-03T20:02:25.026Z,2.72
2023-05-03T20:04:52.879Z,3.10
2023-05-03T20:07:20.555Z,3.50
2023-05-03T20:09:48.066Z,3.72
2023-05-03T20:12:15.611Z,2.85
2023-05-03T20:14:43.123Z,3.05
2023-05-03T20:17:10.524Z,5.07
2023-05-03T20:19:38.659Z,2.92
2023-05-03T20:22:06.196Z,3.45
2023-05-03T20:24:34.126Z,3.67
2023-05-03T20:27:02.688Z,4.22
2023-05-03T20:29:30.266Z,4.82
2023-05-03T20:31:57.873Z,3.13
2023-05-03T20:34:25.444Z,3.25
2023-05-03T20:36:52.946Z,5.10
2023-05-03T20:39:20.491Z,6.57
2023-05-03T20:41:47.879Z,4.70
2023-05-03T20:44:15.377Z,2.58
2023-05-03T20:46:42.826Z,3.92
2023-05-03T20:49:10.796Z,3.15
2023-05-03T20:51:38.288Z,3.33
2023-05-03T20:54:05.887Z,3.63
2023-05-03T20:56:33.830Z,4.22
2023-05-03T20:59:03.471Z,3.05
2023-05-03T21:01:31.923Z,3.70
2023-05-03T21:03:59.481Z,3.05
2023-05-03T21:06:27.844Z,3.78
2023-05-03T21:08:55.240Z,3.83
2023-05-03T21:11:22.714Z,4.05
2023-05-03T21:13:50.234Z,2.92
2023-05-03T21:16:17.793Z,6.82
2023-05-03T21:18:45.433Z,3.75
2023-05-03T21:21:12.978Z,4.82
2023-05-03T21:23:40.525Z,3.13
2023-05-03T21:26:08.046Z,4.25
2023-05-03T21:28:35.725Z,4.00
2023-05-03T21:31:03.152Z,3.38
2023-05-03T21:33:30.530Z,4.15
2023-05-03T21:35:58.161Z,4.20
2023-05-03T21:38:25.698Z,3.17
2023-05-03T21:40:53.166Z,3.10
2023-05-03T21:43:20.621Z,3.25
2023-05-03T21:45:48.985Z,4.28
2023-05-03T21:48:16.454Z,3.83
2023-05-03T21:50:44.750Z,3.33
2023-05-03T21:53:12.357Z,3.70
2023-05-03T21:55:39.831Z,3.53
2023-05-03T21:58:07.281Z,6.03
2023-05-03T22:00:36.270Z,4.95
2023-05-03T22:03:04.053Z,8.70
2023-05-03T22:05:31.806Z,4.70
2023-05-03T22:08:00.190Z,3.38
2023-05-03T22:10:28.025Z,5.45
2023-05-03T22:12:55.556Z,2.78
2023-05-03T22:15:23.052Z,3.08
2023-05-03T22:17:50.856Z,4.03
2023-05-03T22:20:18.411Z,3.85
2023-05-03T22:22:45.848Z,4.13
2023-05-03T22:25:27.803Z,3.67
2023-05-03T22:27:56.527Z,3.13
2023-05-03T22:30:24.606Z,3.15
2023-05-03T22:32:52.178Z,3.17
2023-05-03T22:35:19.942Z,6.68
2023-05-03T22:37:47.512Z,5.80
2023-05-03T22:40:14.970Z,4.22
2023-05-03T22:42:42.483Z,4.05
2023-05-03T22:45:10.686Z,4.15
2023-05-03T22:47:38.249Z,3.30
2023-05-03T22:50:07.685Z,3.85
2023-05-03T22:52:35.079Z,3.38
2023-05-03T22:55:04.278Z,4.22
2023-05-03T22:57:32.293Z,3.60
2023-05-03T22:59:59.921Z,3.42
2023-05-03T23:02:27.592Z,3.83
2023-05-03T23:04:55.160Z,3.58
2023-05-03T23:07:22.598Z,3.90
2023-05-03T23:09:50.095Z,4.57
2023-05-03T23:12:17.569Z,4.85
2023-05-03T23:14:46.132Z,6.03
2023-05-03T23:17:13.868Z,4.43
2023-05-03T23:19:41.747Z,4.60
2023-05-03T23:22:09.716Z,7.15
2023-05-03T23:24:37.201Z,5.10
2023-05-03T23:27:04.629Z,5.43
2023-05-03T23:29:32.547Z,4.22
2023-05-03T23:32:00.886Z,4.07
2023-05-03T23:34:28.675Z,4.40
2023-05-03T23:36:56.232Z,5.45
2023-05-03T23:39:23.904Z,5.68
2023-05-03T23:41:51.396Z,3.90
2023-05-03T23:44:18.918Z,4.10
2023-05-03T23:46:46.349Z,4.68
2023-05-03T23:49:13.830Z,6.20
2023-05-03T23:51:41.299Z,6.32
2023-05-03T23:54:08.712Z,5.15
2023-05-03T23:56:36.240Z,4.68
2023-05-03T23:59:03.981Z,5.32
